DW6912 Weather Reports


Display with metric or nautical units.
time (UTC)temp
F
wind
direction
speed
MPH
gust
MPH
rain 1hr
in
rain 24hr
in
rain mn
in
humidity
%
barometer
mb
20210123180203 28 21 3.0 11.0 0.00 0.00 0.00 59 1022.0
20210123174704 27 342 7.0 19.0 0.00 0.00 0.00 59 1021.9
20210123173055 27 44 9.0 18.0 0.00 0.00 0.00 59 1021.7
20210123171614 27 281 4.0 14.0 0.00 0.00 0.00 59 1022.2
20210123170125 27 304 6.0 16.0 0.00 0.00 0.00 57 1022.3
20210123164628 27 271 4.0 13.0 0.00 0.00 0.00 59 1022.5
20210123163113 27 349 4.0 10.0 0.00 0.00 0.00 58 1022.6
20210123161603 27 360 5.0 9.0 0.00 0.00 0.00 59 1022.7
20210123160256 26 344 3.0 14.0 0.00 0.00 0.00 59 1022.7
20210123154552 26 253 4.0 15.0 0.00 0.00 0.00 58 1022.6
20210123153128 26 331 3.0 13.0 0.00 0.00 0.00 58 1022.6
20210123151655 26 13 4.0 20.0 0.00 0.00 0.00 59 1022.5
20210123150124 26 265 2.0 12.0 0.00 0.00 0.00 60 1022.2
20210123144611 27 355 2.0 11.0 0.00 0.00 0.00 60 1022.0
20210123143216 26 296 4.0 15.0 0.00 0.00 0.00 61 1021.8
20210123141615 25 272 3.0 6.0 0.00 0.00 0.00 66 1021.5
20210123140121 24 296 3.0 10.0 0.00 0.00 0.00 66 1021.4
20210123134735 24 319 4.0 11.0 0.00 0.00 0.00 62 1021.2
20210123133121 24 195 3.0 13.0 0.00 0.00 0.00 61 1020.8
20210123131622 24 360 2.0 8.0 0.00 0.00 0.00 61 1020.7
20210123130149 24 250 5.0 14.0 0.00 0.00 0.00 61 1020.4
20210123124725 24 300 2.0 8.0 0.00 0.00 0.00 59 1020.2
20210123123243 24 67 3.0 11.0 0.00 0.00 0.00 59 1019.8
20210123121620 25 345 4.0 13.0 0.00 0.00 0.00 58 1019.6
20210123120135 25 294 2.0 14.0 0.00 0.00 0.00 55 1019.4
20210123114559 25 270 3.0 12.0 0.00 0.00 0.00 56 1019.3
20210123113307 25 292 3.0 10.0 0.00 0.00 0.00 58 1019.1
20210123111551 25 316 2.0 8.0 0.00 0.00 0.00 62 1018.9
20210123104638 26 333 4.0 14.0 0.00 0.00 0.00 64 1018.3
20210123103151 26 256 3.0 13.0 0.00 0.00 0.00 62 1017.9
20210123101650 27 307 3.0 14.0 0.00 0.00 0.00 62 1017.6
20210123100253 27 328 3.0 14.0 0.00 0.00 0.00 61 1017.3
20210123094653 27 328 5.0 12.0 0.00 0.00 0.00 60 1017.2
20210123093149 27 262 2.0 11.0 0.00 0.00 0.00 64 1017.1
20210123091731 27 30 4.0 13.0 0.00 0.00 0.00 68 1017.0
20210123090216 27 320 4.0 11.0 0.00 0.00 0.00 71 1016.8
20210123083144 27 244 1.0 6.0 0.00 0.00 0.00 74 1016.7
20210123081719 27 5 5.0 11.0 0.00 0.00 0.00 72 1016.7
20210123080121 27 284 1.0 11.0 0.00 0.00 0.00 72 1016.6
20210123074558 28 360 5.0 14.0 0.00 0.00 0.00 73 1016.3
20210123073112 29 5 2.0 11.0 0.00 0.00 0.00 66 1016.1
20210123071623 29 261 2.0 10.0 0.00 0.00 0.00 65 1015.9
20210123070115 29 284 1.0 7.0 0.00 0.00 0.00 66 1015.5
20210123064634 30 328 3.0 7.0 0.00 0.00 0.00 67 1015.4
20210123061733 30 292 1.0 5.0 0.00 0.00 0.00 70 1015.3
20210123060150 30 309 1.0 8.0 0.00 0.00 0.00 71 1015.2
20210123054628 30 11 4.0 11.0 0.00 0.00 0.00 69 1015.1
20210123053140 31 340 4.0 9.0 0.00 0.00 0.00 66 1014.9
20210123051553 31 29 4.0 9.0 0.00 0.00 0.00 66 1014.5
20210123050051 31 263 3.0 10.0 0.00 0.00 0.00 65 1014.6
20210123044603 31 348 6.0 12.0 0.00 0.00 0.00 64 1014.8
20210123043124 32 355 2.0 9.0 0.00 0.00 0.00 59 1014.4
20210123041629 32 292 2.0 9.0 0.00 0.00 0.00 60 1014.2
20210123040107 33 271 1.0 8.0 0.00 0.00 0.00 61 1014.2
20210123034733 33 330 4.0 10.0 0.00 0.00 0.00 61 1014.2
20210123033105 33 309 3.0 11.0 0.00 0.00 0.00 60 1014.2
20210123031647 33 269 2.0 9.0 0.00 0.00 0.00 62 1013.9
20210123024624 34 266 3.0 10.0 0.00 0.00 0.00 64 1013.5
20210123023145 34 360 6.0 13.0 0.00 0.00 0.00 64 1013.5
20210123021740 34 306 6.0 12.0 0.00 0.00 0.00 67 1013.4
20210123013133 35 248 3.0 8.0 0.00 0.00 0.00 70 1012.7
20210123011700 35 267 3.0 8.0 0.00 0.00 0.00 73 1012.6
20210123010032 35 38 2.0 8.0 0.00 0.00 0.00 75 1012.6
20210123001619 35 304 1.0 5.0 0.00 0.00 0.00 75 1012.1
20210122230120 37 273 3.0 6.0 0.00 0.00 0.00 67 1011.4
20210122224651 37 248 1.0 3.0 0.00 0.00 0.00 67 1011.3
20210122223232 37 267 1.0 6.0 0.00 0.00 0.00 68 1011.1
20210122221634 37 232 3.0 9.0 0.00 0.00 0.00 67 1010.9
20210122220036 38 263 2.0 7.0 0.00 0.00 0.00 66 1010.8
20210122213105 38 273 3.0 7.0 0.00 0.00 0.00 65 1010.4
20210122213018 38 273 3.0 7.0 0.00 0.00 0.00 65 1010.4
20210122211543 39 275 3.0 11.0 0.00 0.00 0.00 61 1010.3
20210122210047 39 277 2.0 7.0 0.00 0.00 0.00 61 1009.8
20210122204655 39 275 1.0 11.0 0.00 0.00 0.00 59 1009.5
20210122203140 40 285 2.0 6.0 0.00 0.00 0.00 59 1009.3
20210122201705 40 269 2.0 10.0 0.00 0.00 0.00 58 1009.1
20210122200114 40 303 4.0 9.0 0.00 0.00 0.00 59 1008.8
20210122194614 40 254 2.0 8.0 0.00 0.00 0.00 58 1008.5
20210122193055 40 313 3.0 9.0 0.00 0.00 0.00 59 1008.2
20210122191639 41 216 4.0 11.0 0.00 0.00 0.00 56 1007.9
20210122190145 41 10 5.0 10.0 0.00 0.00 0.00 56 1007.6
20210122184654 42 296 4.0 10.0 0.00 0.00 0.00 57 1007.4
20210122183134 42 236 3.0 10.0 0.00 0.00 0.00 60 1007.6
20210122181607 40 292 5.0 11.0 0.00 0.00 0.00 61 1007.5